createdAt,value
2022-09-23T00:20:11.116Z,53.40
2022-09-23T00:30:13.031Z,53.70
2022-09-23T00:40:14.950Z,54.40
2022-09-23T00:50:30.341Z,54.60
2022-09-23T01:00:32.039Z,54.30
2022-09-23T01:11:13.321Z,53.80
2022-09-23T01:21:32.201Z,53.30
2022-09-23T01:31:51.868Z,55.40
2022-09-23T01:42:05.059Z,53.60
2022-09-23T01:52:36.958Z,52.00
2022-09-23T02:02:56.620Z,55.70
2022-09-23T02:13:07.097Z,55.40
2022-09-23T02:23:40.782Z,54.90
2022-09-23T02:33:57.380Z,54.50
2022-09-23T02:44:10.158Z,55.50
2022-09-23T02:54:16.576Z,54.00
2022-09-23T03:04:33.739Z,52.20
2022-09-23T03:15:01.736Z,53.90
2022-09-23T03:25:11.841Z,53.20
2022-09-23T03:35:14.160Z,54.20
2022-09-23T03:45:24.585Z,53.90
2022-09-23T03:55:26.262Z,53.50
2022-09-23T04:05:27.598Z,52.70
2022-09-23T04:15:29.100Z,55.00
2022-09-23T04:25:30.759Z,55.00
2022-09-23T04:35:33.416Z,55.80
2022-09-23T04:45:40.184Z,55.40
2022-09-23T04:55:41.841Z,55.70
2022-09-23T05:05:43.183Z,54.50
2022-09-23T05:15:44.540Z,55.50
2022-09-23T05:25:47.284Z,58.90
2022-09-23T05:35:51.581Z,61.90
2022-09-23T05:46:19.641Z,62.70
2022-09-23T05:56:24.285Z,64.50
2022-09-23T06:06:43.721Z,67.50
2022-09-23T06:16:45.502Z,70.80
2022-09-23T06:26:47.102Z,72.90
2022-09-23T06:36:48.402Z,73.10
2022-09-23T06:46:50.805Z,74.30
2022-09-23T06:56:52.920Z,76.10
2022-09-23T07:06:57.163Z,73.60
2022-09-23T07:16:59.218Z,73.30
2022-09-23T07:27:01.362Z,66.80
2022-09-23T07:37:02.980Z,62.60
2022-09-23T07:47:04.721Z,61.70
2022-09-23T07:57:06.143Z,60.60
2022-09-23T08:07:10.358Z,61.00
2022-09-23T08:17:13.340Z,57.00
2022-09-23T08:27:14.603Z,51.00
2022-09-23T08:37:16.042Z,46.00
2022-09-23T08:47:34.143Z,45.60
2022-09-23T08:57:41.920Z,38.00
2022-09-23T09:07:44.864Z,35.00
2022-09-23T09:18:13.237Z,35.30
2022-09-23T09:28:28.587Z,32.00
2022-09-23T09:38:31.112Z,28.20
2022-09-23T09:49:01.855Z,29.30
2022-09-23T09:59:20.391Z,29.30
2022-09-23T10:09:24.053Z,26.70
2022-09-23T10:19:31.330Z,22.20
2022-09-23T10:29:36.699Z,20.20
2022-09-23T10:39:57.177Z,19.20
2022-09-23T10:50:38.905Z,18.00
2022-09-23T11:01:02.134Z,16.80
2022-09-23T11:11:18.432Z,16.10
2022-09-23T11:21:55.371Z,16.40
2022-09-23T11:32:03.160Z,15.20
2022-09-23T11:42:05.100Z,16.40
2022-09-23T11:52:31.978Z,16.40
2022-09-23T12:03:05.077Z,14.50
2022-09-23T12:13:29.040Z,15.30
2022-09-23T12:23:48.847Z,16.70
2022-09-23T12:33:58.131Z,16.60
2022-09-23T12:44:15.889Z,15.30
2022-09-23T12:54:27.568Z,14.00
2022-09-23T13:05:20.327Z,13.00
2022-09-23T13:15:43.025Z,15.70
2022-09-23T13:25:46.151Z,14.70
2022-09-23T13:35:56.271Z,14.50
2022-09-23T13:46:01.262Z,15.00
2022-09-23T13:56:21.592Z,12.30
2022-09-23T14:06:24.156Z,11.20
2022-09-23T14:16:30.687Z,12.30
2022-09-23T14:26:33.719Z,12.70
2022-09-23T14:36:57.482Z,12.60
2022-09-23T14:47:01.522Z,12.00
2022-09-23T14:57:21.344Z,12.50
2022-09-23T15:07:25.781Z,13.20
2022-09-23T15:17:27.466Z,15.20
2022-09-23T15:27:33.263Z,15.60
2022-09-23T15:37:36.501Z,15.20
2022-09-23T15:47:39.626Z,16.10
2022-09-23T15:57:41.369Z,17.80
2022-09-23T16:07:43.101Z,20.50
2022-09-23T16:17:46.074Z,24.30
2022-09-23T16:27:47.889Z,30.50
2022-09-23T16:37:50.333Z,35.90
2022-09-23T16:47:53.671Z,39.20
2022-09-23T16:57:59.169Z,45.40
2022-09-23T17:08:01.987Z,43.80
2022-09-23T17:18:03.929Z,47.20
2022-09-23T17:28:05.935Z,54.00
2022-09-23T17:38:07.539Z,59.50
2022-09-23T17:48:09.291Z,59.10
2022-09-23T17:58:10.756Z,60.80
2022-09-23T18:08:12.591Z,62.60
2022-09-23T18:18:14.248Z,67.00
2022-09-23T18:28:15.993Z,71.20
2022-09-23T18:38:17.570Z,70.00
2022-09-23T18:48:37.296Z,69.60
2022-09-23T18:58:38.893Z,69.40
2022-09-23T19:08:41.331Z,75.00
2022-09-23T19:18:44.452Z,74.60
2022-09-23T19:28:52.386Z,75.00
2022-09-23T19:38:56.353Z,76.40
2022-09-23T19:48:58.316Z,74.70
2022-09-23T19:59:00.394Z,77.30
2022-09-23T20:09:05.695Z,78.40
2022-09-23T20:19:07.953Z,75.50
2022-09-23T20:29:10.890Z,76.30
2022-09-23T20:39:13.295Z,69.50
2022-09-23T20:49:15.352Z,76.10
2022-09-23T20:59:19.415Z,76.90
2022-09-23T21:09:22.074Z,76.90
2022-09-23T21:19:24.438Z,75.80
2022-09-23T21:29:26.334Z,76.70
2022-09-23T21:39:28.048Z,78.30
2022-09-23T21:49:29.812Z,80.30
2022-09-23T21:59:31.610Z,77.70
2022-09-23T22:09:33.328Z,80.20
2022-09-23T22:19:45.857Z,84.30
2022-09-23T22:30:08.617Z,86.20
2022-09-23T22:40:16.276Z,85.50
2022-09-23T22:50:18.389Z,84.60
2022-09-23T23:00:19.934Z,83.60
2022-09-23T23:10:21.523Z,86.00
2022-09-23T23:20:24.165Z,88.30
2022-09-23T23:30:28.774Z,87.60
2022-09-23T23:40:30.496Z,89.70
2022-09-23T23:50:31.730Z,90.40
